sensor_id;sensor_type;location;lat;lon;timestamp;pressure;altitude;pressure_sealevel;temperature
12061;BMP180;6091;51.432;6.880;2023-04-24T00:02:05;99324.00;;;24.40
12061;BMP180;6091;51.432;6.880;2023-04-24T00:04:33;99323.00;;;24.40
12061;BMP180;6091;51.432;6.880;2023-04-24T00:07:01;99318.00;;;24.40
12061;BMP180;6091;51.432;6.880;2023-04-24T00:09:30;99320.00;;;24.40
12061;BMP180;6091;51.432;6.880;2023-04-24T00:11:57;99325.00;;;24.40
12061;BMP180;6091;51.432;6.880;2023-04-24T00:14:24;99323.00;;;24.40
12061;BMP180;6091;51.432;6.880;2023-04-24T00:16:51;99322.00;;;24.40
12061;BMP180;6091;51.432;6.880;2023-04-24T00:19:19;99327.00;;;24.40
12061;BMP180;6091;51.432;6.880;2023-04-24T00:21:48;99319.00;;;24.40
12061;BMP180;6091;51.432;6.880;2023-04-24T00:24:18;99321.00;;;24.40
12061;BMP180;6091;51.432;6.880;2023-04-24T00:26:45;99319.00;;;24.40
12061;BMP180;6091;51.432;6.880;2023-04-24T00:29:12;99325.00;;;24.40
12061;BMP180;6091;51.432;6.880;2023-04-24T00:31:40;99311.00;;;24.40
12061;BMP180;6091;51.432;6.880;2023-04-24T00:34:07;99315.00;;;24.40
12061;BMP180;6091;51.432;6.880;2023-04-24T00:36:34;99319.00;;;24.40
12061;BMP180;6091;51.432;6.880;2023-04-24T00:39:04;99325.00;;;24.40
12061;BMP180;6091;51.432;6.880;2023-04-24T00:41:32;99323.00;;;24.40
12061;BMP180;6091;51.432;6.880;2023-04-24T00:43:59;99325.00;;;24.40
12061;BMP180;6091;51.432;6.880;2023-04-24T00:46:26;99324.00;;;24.40
12061;BMP180;6091;51.432;6.880;2023-04-24T00:48:53;99328.00;;;24.40
12061;BMP180;6091;51.432;6.880;2023-04-24T00:51:20;99318.00;;;24.40
12061;BMP180;6091;51.432;6.880;2023-04-24T00:53:47;99327.00;;;24.40
12061;BMP180;6091;51.432;6.880;2023-04-24T00:56:15;99330.00;;;24.40
12061;BMP180;6091;51.432;6.880;2023-04-24T00:58:43;99332.00;;;24.40
12061;BMP180;6091;51.432;6.880;2023-04-24T01:01:10;99337.00;;;24.30
12061;BMP180;6091;51.432;6.880;2023-04-24T01:03:39;99338.00;;;24.30
12061;BMP180;6091;51.432;6.880;2023-04-24T01:06:08;99343.00;;;24.30
12061;BMP180;6091;51.432;6.880;2023-04-24T01:08:36;99339.00;;;24.30
12061;BMP180;6091;51.432;6.880;2023-04-24T01:11:05;99331.00;;;24.30
12061;BMP180;6091;51.432;6.880;2023-04-24T01:13:34;99332.00;;;24.30
12061;BMP180;6091;51.432;6.880;2023-04-24T01:16:01;99325.00;;;24.30
12061;BMP180;6091;51.432;6.880;2023-04-24T01:18:29;99337.00;;;24.30
12061;BMP180;6091;51.432;6.880;2023-04-24T01:21:03;99330.00;;;24.30
12061;BMP180;6091;51.432;6.880;2023-04-24T01:23:34;99327.00;;;24.30
12061;BMP180;6091;51.432;6.880;2023-04-24T01:26:01;99333.00;;;24.30
12061;BMP180;6091;51.432;6.880;2023-04-24T01:28:29;99332.00;;;24.30
12061;BMP180;6091;51.432;6.880;2023-04-24T01:30:59;99330.00;;;24.30
12061;BMP180;6091;51.432;6.880;2023-04-24T01:33:26;99323.00;;;24.30
12061;BMP180;6091;51.432;6.880;2023-04-24T01:35:54;99331.00;;;24.30
12061;BMP180;6091;51.432;6.880;2023-04-24T01:38:21;99327.00;;;24.20
12061;BMP180;6091;51.432;6.880;2023-04-24T01:40:50;99326.00;;;24.20
12061;BMP180;6091;51.432;6.880;2023-04-24T01:43:18;99326.00;;;24.20
12061;BMP180;6091;51.432;6.880;2023-04-24T01:45:45;99326.00;;;24.20
12061;BMP180;6091;51.432;6.880;2023-04-24T01:48:13;99328.00;;;24.20
12061;BMP180;6091;51.432;6.880;2023-04-24T01:50:40;99320.00;;;24.20
12061;BMP180;6091;51.432;6.880;2023-04-24T01:53:07;99316.00;;;24.20
12061;BMP180;6091;51.432;6.880;2023-04-24T01:55:34;99329.00;;;24.20
12061;BMP180;6091;51.432;6.880;2023-04-24T01:58:02;99326.00;;;24.20
12061;BMP180;6091;51.432;6.880;2023-04-24T02:00:32;99331.00;;;24.20
12061;BMP180;6091;51.432;6.880;2023-04-24T02:02:59;99329.00;;;24.20
12061;BMP180;6091;51.432;6.880;2023-04-24T02:05:28;99329.00;;;24.20
12061;BMP180;6091;51.432;6.880;2023-04-24T02:07:56;99333.00;;;24.20
12061;BMP180;6091;51.432;6.880;2023-04-24T02:10:23;99331.00;;;24.20
12061;BMP180;6091;51.432;6.880;2023-04-24T02:12:51;99337.00;;;24.20
12061;BMP180;6091;51.432;6.880;2023-04-24T02:15:18;99335.00;;;24.20
12061;BMP180;6091;51.432;6.880;2023-04-24T02:17:45;99339.00;;;24.20
12061;BMP180;6091;51.432;6.880;2023-04-24T02:20:12;99343.00;;;24.20
12061;BMP180;6091;51.432;6.880;2023-04-24T02:22:40;99340.00;;;24.10
12061;BMP180;6091;51.432;6.880;2023-04-24T02:25:07;99340.00;;;24.10
12061;BMP180;6091;51.432;6.880;2023-04-24T02:27:35;99342.00;;;24.10
12061;BMP180;6091;51.432;6.880;2023-04-24T02:30:02;99346.00;;;24.10
12061;BMP180;6091;51.432;6.880;2023-04-24T02:32:29;99340.00;;;24.10
12061;BMP180;6091;51.432;6.880;2023-04-24T02:34:57;99339.00;;;24.10
12061;BMP180;6091;51.432;6.880;2023-04-24T02:37:24;99344.00;;;24.10
12061;BMP180;6091;51.432;6.880;2023-04-24T02:39:51;99340.00;;;24.10
12061;BMP180;6091;51.432;6.880;2023-04-24T02:42:21;99344.00;;;24.10
12061;BMP180;6091;51.432;6.880;2023-04-24T02:44:48;99342.00;;;24.10
12061;BMP180;6091;51.432;6.880;2023-04-24T02:47:15;99347.00;;;24.10
12061;BMP180;6091;51.432;6.880;2023-04-24T02:49:42;99344.00;;;24.10
12061;BMP180;6091;51.432;6.880;2023-04-24T02:52:12;99347.00;;;24.10
12061;BMP180;6091;51.432;6.880;2023-04-24T02:54:40;99352.00;;;24.10
12061;BMP180;6091;51.432;6.880;2023-04-24T02:57:07;99348.00;;;24.10
12061;BMP180;6091;51.432;6.880;2023-04-24T02:59:37;99348.00;;;24.10
12061;BMP180;6091;51.432;6.880;2023-04-24T03:02:04;99356.00;;;24.10
12061;BMP180;6091;51.432;6.880;2023-04-24T03:04:34;99349.00;;;24.10
12061;BMP180;6091;51.432;6.880;2023-04-24T03:07:02;99352.00;;;24.10
12061;BMP180;6091;51.432;6.880;2023-04-24T03:09:29;99350.00;;;24.10
12061;BMP180;6091;51.432;6.880;2023-04-24T03:11:56;99349.00;;;24.10
12061;BMP180;6091;51.432;6.880;2023-04-24T03:14:25;99352.00;;;24.10
12061;BMP180;6091;51.432;6.880;2023-04-24T03:16:52;99360.00;;;24.10
12061;BMP180;6091;51.432;6.880;2023-04-24T03:19:19;99358.00;;;24.00
12061;BMP180;6091;51.432;6.880;2023-04-24T03:21:46;99366.00;;;23.90
12061;BMP180;6091;51.432;6.880;2023-04-24T03:24:13;99361.00;;;24.00
12061;BMP180;6091;51.432;6.880;2023-04-24T03:26:40;99360.00;;;24.00
12061;BMP180;6091;51.432;6.880;2023-04-24T03:29:07;99365.00;;;24.00
12061;BMP180;6091;51.432;6.880;2023-04-24T03:31:34;99357.00;;;24.00
12061;BMP180;6091;51.432;6.880;2023-04-24T03:34:01;99369.00;;;24.00
12061;BMP180;6091;51.432;6.880;2023-04-24T03:36:28;99364.00;;;24.00
12061;BMP180;6091;51.432;6.880;2023-04-24T03:38:55;99365.00;;;24.00
12061;BMP180;6091;51.432;6.880;2023-04-24T03:41:22;99368.00;;;24.00
12061;BMP180;6091;51.432;6.880;2023-04-24T03:43:49;99370.00;;;24.00
12061;BMP180;6091;51.432;6.880;2023-04-24T03:46:16;99370.00;;;24.00
12061;BMP180;6091;51.432;6.880;2023-04-24T03:48:43;99374.00;;;24.00
12061;BMP180;6091;51.432;6.880;2023-04-24T03:51:11;99372.00;;;24.00
12061;BMP180;6091;51.432;6.880;2023-04-24T03:53:38;99367.00;;;24.00
12061;BMP180;6091;51.432;6.880;2023-04-24T03:56:05;99376.00;;;24.00
12061;BMP180;6091;51.432;6.880;2023-04-24T03:58:32;99371.00;;;24.00
12061;BMP180;6091;51.432;6.880;2023-04-24T04:00:59;99377.00;;;24.00
12061;BMP180;6091;51.432;6.880;2023-04-24T04:03:29;99376.00;;;24.00
12061;BMP180;6091;51.432;6.880;2023-04-24T04:05:57;99374.00;;;24.00
12061;BMP180;6091;51.432;6.880;2023-04-24T04:08:27;99371.00;;;24.00
12061;BMP180;6091;51.432;6.880;2023-04-24T04:10:54;99371.00;;;24.00
12061;BMP180;6091;51.432;6.880;2023-04-24T04:13:21;99371.00;;;24.00
12061;BMP180;6091;51.432;6.880;2023-04-24T04:15:48;99371.00;;;24.00
12061;BMP180;6091;51.432;6.880;2023-04-24T04:18:15;99381.00;;;24.00
12061;BMP180;6091;51.432;6.880;2023-04-24T04:20:43;99379.00;;;24.00
12061;BMP180;6091;51.432;6.880;2023-04-24T04:23:10;99379.00;;;23.90
12061;BMP180;6091;51.432;6.880;2023-04-24T04:25:37;99374.00;;;24.00
12061;BMP180;6091;51.432;6.880;2023-04-24T04:28:04;99390.00;;;24.00
12061;BMP180;6091;51.432;6.880;2023-04-24T04:30:31;99386.00;;;24.00
12061;BMP180;6091;51.432;6.880;2023-04-24T04:32:59;99387.00;;;24.00
12061;BMP180;6091;51.432;6.880;2023-04-24T04:35:27;99390.00;;;24.00
12061;BMP180;6091;51.432;6.880;2023-04-24T04:37:55;99381.00;;;24.00
12061;BMP180;6091;51.432;6.880;2023-04-24T04:40:25;99391.00;;;24.00
12061;BMP180;6091;51.432;6.880;2023-04-24T04:42:57;99392.00;;;24.00
12061;BMP180;6091;51.432;6.880;2023-04-24T04:45:25;99391.00;;;23.90
12061;BMP180;6091;51.432;6.880;2023-04-24T04:47:54;99387.00;;;23.90
12061;BMP180;6091;51.432;6.880;2023-04-24T04:50:22;99398.00;;;23.90
12061;BMP180;6091;51.432;6.880;2023-04-24T04:52:49;99394.00;;;23.90
12061;BMP180;6091;51.432;6.880;2023-04-24T04:55:17;99397.00;;;23.90
12061;BMP180;6091;51.432;6.880;2023-04-24T04:57:48;99404.00;;;23.90
12061;BMP180;6091;51.432;6.880;2023-04-24T05:00:15;99395.00;;;23.90
12061;BMP180;6091;51.432;6.880;2023-04-24T05:02:43;99403.00;;;23.90
12061;BMP180;6091;51.432;6.880;2023-04-24T05:05:11;99403.00;;;23.90
12061;BMP180;6091;51.432;6.880;2023-04-24T05:07:38;99408.00;;;23.90
12061;BMP180;6091;51.432;6.880;2023-04-24T05:10:06;99410.00;;;23.90
12061;BMP180;6091;51.432;6.880;2023-04-24T05:12:34;99405.00;;;23.90
12061;BMP180;6091;51.432;6.880;2023-04-24T05:15:01;99399.00;;;23.90
12061;BMP180;6091;51.432;6.880;2023-04-24T05:17:28;99408.00;;;23.90
12061;BMP180;6091;51.432;6.880;2023-04-24T05:19:56;99408.00;;;23.90
12061;BMP180;6091;51.432;6.880;2023-04-24T05:22:23;99401.00;;;23.90
12061;BMP180;6091;51.432;6.880;2023-04-24T05:24:50;99409.00;;;23.90
12061;BMP180;6091;51.432;6.880;2023-04-24T05:27:18;99408.00;;;23.90
12061;BMP180;6091;51.432;6.880;2023-04-24T05:29:46;99406.00;;;23.90
12061;BMP180;6091;51.432;6.880;2023-04-24T05:32:13;99410.00;;;23.90
12061;BMP180;6091;51.432;6.880;2023-04-24T05:34:40;99407.00;;;23.90
12061;BMP180;6091;51.432;6.880;2023-04-24T05:37:07;99414.00;;;23.90
12061;BMP180;6091;51.432;6.880;2023-04-24T05:39:37;99408.00;;;24.00
12061;BMP180;6091;51.432;6.880;2023-04-24T05:42:08;99421.00;;;24.00
12061;BMP180;6091;51.432;6.880;2023-04-24T05:44:36;99419.00;;;24.10
12061;BMP180;6091;51.432;6.880;2023-04-24T05:47:03;99416.00;;;24.20
12061;BMP180;6091;51.432;6.880;2023-04-24T05:49:30;99418.00;;;24.30
12061;BMP180;6091;51.432;6.880;2023-04-24T05:52:00;99419.00;;;24.50
12061;BMP180;6091;51.432;6.880;2023-04-24T05:54:27;99421.00;;;24.70
12061;BMP180;6091;51.432;6.880;2023-04-24T05:56:54;99424.00;;;24.80
12061;BMP180;6091;51.432;6.880;2023-04-24T05:59:25;99410.00;;;24.90
12061;BMP180;6091;51.432;6.880;2023-04-24T06:01:55;99425.00;;;25.10
12061;BMP180;6091;51.432;6.880;2023-04-24T06:04:25;99423.00;;;25.20
12061;BMP180;6091;51.432;6.880;2023-04-24T06:06:56;99426.00;;;25.30
12061;BMP180;6091;51.432;6.880;2023-04-24T06:09:24;99428.00;;;25.40
12061;BMP180;6091;51.432;6.880;2023-04-24T06:11:53;99425.00;;;25.50
12061;BMP180;6091;51.432;6.880;2023-04-24T06:14:21;99435.00;;;25.60
12061;BMP180;6091;51.432;6.880;2023-04-24T06:16:48;99434.00;;;25.80
12061;BMP180;6091;51.432;6.880;2023-04-24T06:19:16;99438.00;;;25.90
12061;BMP180;6091;51.432;6.880;2023-04-24T06:21:43;99444.00;;;26.00
12061;BMP180;6091;51.432;6.880;2023-04-24T06:24:10;99444.00;;;26.00
12061;BMP180;6091;51.432;6.880;2023-04-24T06:26:38;99440.00;;;26.10
12061;BMP180;6091;51.432;6.880;2023-04-24T06:29:06;99443.00;;;26.20
12061;BMP180;6091;51.432;6.880;2023-04-24T06:31:34;99436.00;;;26.30
12061;BMP180;6091;51.432;6.880;2023-04-24T06:34:04;99429.00;;;26.30
12061;BMP180;6091;51.432;6.880;2023-04-24T06:36:32;99438.00;;;26.40
12061;BMP180;6091;51.432;6.880;2023-04-24T06:39:01;99432.00;;;26.40
12061;BMP180;6091;51.432;6.880;2023-04-24T06:41:28;99428.00;;;26.50
12061;BMP180;6091;51.432;6.880;2023-04-24T06:43:56;99428.00;;;26.60
12061;BMP180;6091;51.432;6.880;2023-04-24T06:46:27;99424.00;;;26.60
12061;BMP180;6091;51.432;6.880;2023-04-24T06:48:54;99438.00;;;26.70
12061;BMP180;6091;51.432;6.880;2023-04-24T06:51:26;99440.00;;;26.70
12061;BMP180;6091;51.432;6.880;2023-04-24T06:53:54;99431.00;;;26.70
12061;BMP180;6091;51.432;6.880;2023-04-24T06:56:23;99433.00;;;26.70
12061;BMP180;6091;51.432;6.880;2023-04-24T06:58:51;99429.00;;;26.80
12061;BMP180;6091;51.432;6.880;2023-04-24T07:01:18;99430.00;;;26.80
12061;BMP180;6091;51.432;6.880;2023-04-24T07:03:48;99432.00;;;26.80
12061;BMP180;6091;51.432;6.880;2023-04-24T07:06:15;99431.00;;;26.80
12061;BMP180;6091;51.432;6.880;2023-04-24T07:08:45;99433.00;;;26.80
12061;BMP180;6091;51.432;6.880;2023-04-24T07:11:13;99431.00;;;26.80
12061;BMP180;6091;51.432;6.880;2023-04-24T07:13:40;99434.00;;;26.80
12061;BMP180;6091;51.432;6.880;2023-04-24T07:16:09;99438.00;;;26.80
12061;BMP180;6091;51.432;6.880;2023-04-24T07:18:36;99438.00;;;26.70
12061;BMP180;6091;51.432;6.880;2023-04-24T07:21:04;99437.00;;;26.70
12061;BMP180;6091;51.432;6.880;2023-04-24T07:23:31;99431.00;;;26.70
12061;BMP180;6091;51.432;6.880;2023-04-24T07:25:58;99424.00;;;26.60
12061;BMP180;6091;51.432;6.880;2023-04-24T07:28:25;99440.00;;;26.60
12061;BMP180;6091;51.432;6.880;2023-04-24T07:30:52;99452.00;;;26.60
12061;BMP180;6091;51.432;6.880;2023-04-24T07:33:21;99450.00;;;26.60
12061;BMP180;6091;51.432;6.880;2023-04-24T07:35:48;99455.00;;;26.50
12061;BMP180;6091;51.432;6.880;2023-04-24T07:38:16;99454.00;;;26.50
12061;BMP180;6091;51.432;6.880;2023-04-24T07:40:43;99449.00;;;26.50
12061;BMP180;6091;51.432;6.880;2023-04-24T07:43:12;99455.00;;;26.50
12061;BMP180;6091;51.432;6.880;2023-04-24T07:45:40;99459.00;;;26.50
12061;BMP180;6091;51.432;6.880;2023-04-24T07:48:07;99460.00;;;26.50
12061;BMP180;6091;51.432;6.880;2023-04-24T07:50:38;99452.00;;;26.50
12061;BMP180;6091;51.432;6.880;2023-04-24T07:53:07;99451.00;;;26.40
12061;BMP180;6091;51.432;6.880;2023-04-24T07:55:35;99454.00;;;26.40
12061;BMP180;6091;51.432;6.880;2023-04-24T07:58:02;99456.00;;;26.40
12061;BMP180;6091;51.432;6.880;2023-04-24T08:00:30;99461.00;;;26.40
12061;BMP180;6091;51.432;6.880;2023-04-24T08:02:57;99468.00;;;26.40
12061;BMP180;6091;51.432;6.880;2023-04-24T08:05:25;99473.00;;;26.40
12061;BMP180;6091;51.432;6.880;2023-04-24T08:07:55;99473.00;;;26.40
12061;BMP180;6091;51.432;6.880;2023-04-24T08:10:23;99478.00;;;26.40
12061;BMP180;6091;51.432;6.880;2023-04-24T08:12:50;99475.00;;;26.40
12061;BMP180;6091;51.432;6.880;2023-04-24T08:15:21;99480.00;;;26.40
12061;BMP180;6091;51.432;6.880;2023-04-24T08:17:48;99473.00;;;26.30
12061;BMP180;6091;51.432;6.880;2023-04-24T08:20:17;99485.00;;;26.30
12061;BMP180;6091;51.432;6.880;2023-04-24T08:22:45;99489.00;;;26.30
12061;BMP180;6091;51.432;6.880;2023-04-24T08:25:14;99486.00;;;26.30
12061;BMP180;6091;51.432;6.880;2023-04-24T08:27:44;99503.00;;;26.30
12061;BMP180;6091;51.432;6.880;2023-04-24T08:30:11;99502.00;;;26.30
12061;BMP180;6091;51.432;6.880;2023-04-24T08:32:40;99507.00;;;26.30
12061;BMP180;6091;51.432;6.880;2023-04-24T08:35:08;99514.00;;;26.30
12061;BMP180;6091;51.432;6.880;2023-04-24T08:37:36;99517.00;;;26.30
12061;BMP180;6091;51.432;6.880;2023-04-24T08:40:14;99521.00;;;26.30
12061;BMP180;6091;51.432;6.880;2023-04-24T08:42:43;99531.00;;;26.30
12061;BMP180;6091;51.432;6.880;2023-04-24T08:45:13;99531.00;;;26.30
12061;BMP180;6091;51.432;6.880;2023-04-24T08:47:41;99538.00;;;26.30
12061;BMP180;6091;51.432;6.880;2023-04-24T08:50:10;99550.00;;;26.30
12061;BMP180;6091;51.432;6.880;2023-04-24T08:52:37;99562.00;;;26.30
12061;BMP180;6091;51.432;6.880;2023-04-24T08:55:05;99555.00;;;26.30
12061;BMP180;6091;51.432;6.880;2023-04-24T08:57:33;99574.00;;;26.30
12061;BMP180;6091;51.432;6.880;2023-04-24T09:00:03;99569.00;;;26.30
12061;BMP180;6091;51.432;6.880;2023-04-24T09:02:32;99574.00;;;26.30
12061;BMP180;6091;51.432;6.880;2023-04-24T09:05:05;99570.00;;;26.30
12061;BMP180;6091;51.432;6.880;2023-04-24T09:07:35;99585.00;;;26.30
12061;BMP180;6091;51.432;6.880;2023-04-24T09:10:03;99591.00;;;26.30
12061;BMP180;6091;51.432;6.880;2023-04-24T09:12:34;99581.00;;;26.30
12061;BMP180;6091;51.432;6.880;2023-04-24T09:15:03;99596.00;;;26.30
12061;BMP180;6091;51.432;6.880;2023-04-24T09:17:32;99616.00;;;26.30
12061;BMP180;6091;51.432;6.880;2023-04-24T09:20:00;99628.00;;;26.20
12061;BMP180;6091;51.432;6.880;2023-04-24T09:22:30;99632.00;;;26.30
12061;BMP180;6091;51.432;6.880;2023-04-24T09:25:08;99638.00;;;26.20
12061;BMP180;6091;51.432;6.880;2023-04-24T09:27:36;99649.00;;;26.20
12061;BMP180;6091;51.432;6.880;2023-04-24T09:30:03;99667.00;;;26.20
12061;BMP180;6091;51.432;6.880;2023-04-24T09:32:34;99677.00;;;26.20
12061;BMP180;6091;51.432;6.880;2023-04-24T09:35:16;99679.00;;;26.20
12061;BMP180;6091;51.432;6.880;2023-04-24T09:37:47;99696.00;;;26.20
12061;BMP180;6091;51.432;6.880;2023-04-24T09:40:21;99706.00;;;26.10
12061;BMP180;6091;51.432;6.880;2023-04-24T09:42:56;99712.00;;;26.10
12061;BMP180;6091;51.432;6.880;2023-04-24T09:45:35;99719.00;;;26.10
12061;BMP180;6091;51.432;6.880;2023-04-24T09:48:02;99727.00;;;26.00
12061;BMP180;6091;51.432;6.880;2023-04-24T09:50:33;99744.00;;;26.00
12061;BMP180;6091;51.432;6.880;2023-04-24T09:53:06;99742.00;;;25.90
12061;BMP180;6091;51.432;6.880;2023-04-24T09:55:45;99749.00;;;25.90
12061;BMP180;6091;51.432;6.880;2023-04-24T09:58:17;99750.00;;;25.80
12061;BMP180;6091;51.432;6.880;2023-04-24T10:00:46;99765.00;;;25.80
12061;BMP180;6091;51.432;6.880;2023-04-24T10:03:16;99761.00;;;25.80
12061;BMP180;6091;51.432;6.880;2023-04-24T10:05:47;99757.00;;;25.80
12061;BMP180;6091;51.432;6.880;2023-04-24T10:08:14;99769.00;;;25.80
12061;BMP180;6091;51.432;6.880;2023-04-24T10:10:43;99778.00;;;25.70
12061;BMP180;6091;51.432;6.880;2023-04-24T10:13:13;99786.00;;;25.70
12061;BMP180;6091;51.432;6.880;2023-04-24T10:15:42;99788.00;;;25.70
12061;BMP180;6091;51.432;6.880;2023-04-24T10:18:10;99793.00;;;25.70
12061;BMP180;6091;51.432;6.880;2023-04-24T10:20:41;99792.00;;;25.70
12061;BMP180;6091;51.432;6.880;2023-04-24T10:23:09;99806.00;;;25.70
12061;BMP180;6091;51.432;6.880;2023-04-24T10:25:37;99797.00;;;25.70
12061;BMP180;6091;51.432;6.880;2023-04-24T10:28:05;99801.00;;;25.70
12061;BMP180;6091;51.432;6.880;2023-04-24T10:30:35;99804.00;;;25.70
12061;BMP180;6091;51.432;6.880;2023-04-24T10:33:08;99819.00;;;25.70
12061;BMP180;6091;51.432;6.880;2023-04-24T10:35:45;99823.00;;;25.70
12061;BMP180;6091;51.432;6.880;2023-04-24T10:38:24;99830.00;;;25.70
12061;BMP180;6091;51.432;6.880;2023-04-24T10:41:11;99830.00;;;25.70
12061;BMP180;6091;51.432;6.880;2023-04-24T10:43:43;99825.00;;;25.70
12061;BMP180;6091;51.432;6.880;2023-04-24T10:46:17;99830.00;;;25.70
12061;BMP180;6091;51.432;6.880;2023-04-24T10:48:54;99843.00;;;25.70
12061;BMP180;6091;51.432;6.880;2023-04-24T10:51:48;99838.00;;;25.70
12061;BMP180;6091;51.432;6.880;2023-04-24T10:54:24;99846.00;;;25.70
12061;BMP180;6091;51.432;6.880;2023-04-24T10:56:52;99857.00;;;25.70
12061;BMP180;6091;51.432;6.880;2023-04-24T10:59:35;99850.00;;;25.70
12061;BMP180;6091;51.432;6.880;2023-04-24T11:02:07;99861.00;;;25.70
12061;BMP180;6091;51.432;6.880;2023-04-24T11:04:35;99866.00;;;25.70
12061;BMP180;6091;51.432;6.880;2023-04-24T11:07:03;99862.00;;;25.70
12061;BMP180;6091;51.432;6.880;2023-04-24T11:09:32;99876.00;;;25.70
12061;BMP180;6091;51.432;6.880;2023-04-24T11:17:35;99880.00;;;25.80
12061;BMP180;6091;51.432;6.880;2023-04-24T11:20:07;99884.00;;;25.80
12061;BMP180;6091;51.432;6.880;2023-04-24T11:22:55;99881.00;;;25.80
12061;BMP180;6091;51.432;6.880;2023-04-24T11:25:24;99883.00;;;25.80
12061;BMP180;6091;51.432;6.880;2023-04-24T11:28:04;99889.00;;;26.20
12061;BMP180;6091;51.432;6.880;2023-04-24T11:30:33;99894.00;;;26.00
12061;BMP180;6091;51.432;6.880;2023-04-24T11:33:07;99901.00;;;25.90
12061;BMP180;6091;51.432;6.880;2023-04-24T11:35:40;99894.00;;;25.80
12061;BMP180;6091;51.432;6.880;2023-04-24T11:38:08;99897.00;;;25.80
12061;BMP180;6091;51.432;6.880;2023-04-24T11:40:40;99913.00;;;25.80
12061;BMP180;6091;51.432;6.880;2023-04-24T11:43:10;99907.00;;;25.80
12061;BMP180;6091;51.432;6.880;2023-04-24T11:45:48;99933.00;;;25.80
12061;BMP180;6091;51.432;6.880;2023-04-24T11:48:20;99929.00;;;25.80
12061;BMP180;6091;51.432;6.880;2023-04-24T11:50:50;99930.00;;;25.80
12061;BMP180;6091;51.432;6.880;2023-04-24T11:53:22;99937.00;;;25.80
12061;BMP180;6091;51.432;6.880;2023-04-24T11:55:49;99937.00;;;25.90
12061;BMP180;6091;51.432;6.880;2023-04-24T11:58:21;99942.00;;;25.90
12061;BMP180;6091;51.432;6.880;2023-04-24T12:00:57;99939.00;;;25.90
12061;BMP180;6091;51.432;6.880;2023-04-24T12:03:28;99940.00;;;26.00
12061;BMP180;6091;51.432;6.880;2023-04-24T12:06:09;99944.00;;;26.00
12061;BMP180;6091;51.432;6.880;2023-04-24T12:08:38;99948.00;;;26.00
12061;BMP180;6091;51.432;6.880;2023-04-24T12:11:07;99947.00;;;26.10
12061;BMP180;6091;51.432;6.880;2023-04-24T12:13:35;99952.00;;;26.10
12061;BMP180;6091;51.432;6.880;2023-04-24T12:16:06;99955.00;;;26.00
12061;BMP180;6091;51.432;6.880;2023-04-24T12:18:42;99965.00;;;26.00
12061;BMP180;6091;51.432;6.880;2023-04-24T12:21:22;99960.00;;;26.00
12061;BMP180;6091;51.432;6.880;2023-04-24T12:23:50;99971.00;;;26.00
12061;BMP180;6091;51.432;6.880;2023-04-24T12:26:19;99966.00;;;25.90
12061;BMP180;6091;51.432;6.880;2023-04-24T12:28:49;99964.00;;;25.90
12061;BMP180;6091;51.432;6.880;2023-04-24T12:31:17;99977.00;;;25.90
12061;BMP180;6091;51.432;6.880;2023-04-24T12:33:44;99984.00;;;25.90
12061;BMP180;6091;51.432;6.880;2023-04-24T12:36:12;99994.00;;;25.80
12061;BMP180;6091;51.432;6.880;2023-04-24T12:38:52;99996.00;;;25.80
12061;BMP180;6091;51.432;6.880;2023-04-24T12:41:19;100005.00;;;25.80
12061;BMP180;6091;51.432;6.880;2023-04-24T12:43:53;99990.00;;;25.80
12061;BMP180;6091;51.432;6.880;2023-04-24T12:46:21;100001.00;;;25.80
12061;BMP180;6091;51.432;6.880;2023-04-24T12:48:49;100005.00;;;25.80
12061;BMP180;6091;51.432;6.880;2023-04-24T12:51:16;100000.00;;;25.80
12061;BMP180;6091;51.432;6.880;2023-04-24T12:53:46;99992.00;;;25.80
12061;BMP180;6091;51.432;6.880;2023-04-24T12:56:13;100002.00;;;25.80
12061;BMP180;6091;51.432;6.880;2023-04-24T12:58:40;100011.00;;;25.80
12061;BMP180;6091;51.432;6.880;2023-04-24T13:01:07;100007.00;;;25.80
12061;BMP180;6091;51.432;6.880;2023-04-24T13:03:35;100016.00;;;25.80
12061;BMP180;6091;51.432;6.880;2023-04-24T13:06:03;100012.00;;;25.80
12061;BMP180;6091;51.432;6.880;2023-04-24T13:08:30;100018.00;;;25.80
12061;BMP180;6091;51.432;6.880;2023-04-24T13:10:57;100022.00;;;25.80
12061;BMP180;6091;51.432;6.880;2023-04-24T13:13:24;100030.00;;;25.80
12061;BMP180;6091;51.432;6.880;2023-04-24T13:15:51;100030.00;;;25.80
12061;BMP180;6091;51.432;6.880;2023-04-24T13:18:18;100028.00;;;25.80
12061;BMP180;6091;51.432;6.880;2023-04-24T13:20:46;100027.00;;;25.80
12061;BMP180;6091;51.432;6.880;2023-04-24T13:23:14;100029.00;;;25.70
12061;BMP180;6091;51.432;6.880;2023-04-24T13:25:42;100036.00;;;25.70
12061;BMP180;6091;51.432;6.880;2023-04-24T13:28:11;100043.00;;;25.70
12061;BMP180;6091;51.432;6.880;2023-04-24T13:30:40;100033.00;;;25.70
12061;BMP180;6091;51.432;6.880;2023-04-24T13:33:10;100041.00;;;25.70
12061;BMP180;6091;51.432;6.880;2023-04-24T13:35:37;100040.00;;;25.60
12061;BMP180;6091;51.432;6.880;2023-04-24T13:38:04;100039.00;;;25.60
12061;BMP180;6091;51.432;6.880;2023-04-24T13:40:33;100044.00;;;25.60
12061;BMP180;6091;51.432;6.880;2023-04-24T13:43:01;100037.00;;;25.60
12061;BMP180;6091;51.432;6.880;2023-04-24T13:45:28;100034.00;;;25.60
12061;BMP180;6091;51.432;6.880;2023-04-24T13:47:56;100042.00;;;25.60
12061;BMP180;6091;51.432;6.880;2023-04-24T13:50:24;100039.00;;;25.60
12061;BMP180;6091;51.432;6.880;2023-04-24T13:52:53;100038.00;;;25.60
12061;BMP180;6091;51.432;6.880;2023-04-24T13:55:21;100020.00;;;25.60
12061;BMP180;6091;51.432;6.880;2023-04-24T13:57:49;100029.00;;;25.60
12061;BMP180;6091;51.432;6.880;2023-04-24T14:00:16;100022.00;;;25.60
12061;BMP180;6091;51.432;6.880;2023-04-24T14:02:47;100025.00;;;25.60
12061;BMP180;6091;51.432;6.880;2023-04-24T14:05:16;100022.00;;;25.60
12061;BMP180;6091;51.432;6.880;2023-04-24T14:07:44;100026.00;;;25.60
12061;BMP180;6091;51.432;6.880;2023-04-24T14:10:12;100029.00;;;25.60
12061;BMP180;6091;51.432;6.880;2023-04-24T14:12:41;100028.00;;;25.60
12061;BMP180;6091;51.432;6.880;2023-04-24T14:15:10;100034.00;;;25.70
12061;BMP180;6091;51.432;6.880;2023-04-24T14:17:42;100015.00;;;25.70
12061;BMP180;6091;51.432;6.880;2023-04-24T14:20:10;100022.00;;;25.70
12061;BMP180;6091;51.432;6.880;2023-04-24T14:22:40;100026.00;;;25.70
12061;BMP180;6091;51.432;6.880;2023-04-24T14:25:08;100022.00;;;25.70
12061;BMP180;6091;51.432;6.880;2023-04-24T14:27:35;100039.00;;;25.70
12061;BMP180;6091;51.432;6.880;2023-04-24T14:30:04;100031.00;;;25.60
12061;BMP180;6091;51.432;6.880;2023-04-24T14:32:31;100032.00;;;25.60
12061;BMP180;6091;51.432;6.880;2023-04-24T14:34:58;100031.00;;;25.60